Terminal Aerodrome Forecast
Issued by NWS

Current Version | Previous Version | Text Only | Print | Product List | Glossary On
Versions: 1 2 3 4 5 6 7 8 9 10 11 12
000
FTUS45 KABQ 210500
TAFAEG
TAF
KAEG 210530Z 2106/2206 13008KT P6SM BKN250
     FM211700 12012G22KT P6SM SCT050
     FM212100 13012G22KT P6SM VCSH BKN060
      TEMPO 2121/2201 5SM -TSRA OVC030CB
     FM220300 12014G22KT P6SM BKN050=

USA.gov is the U.S. government's official web portal to all federal, state and local government web resources and services.